Flight Briefing for CPX257

Departure Arrival
Grantley Adams International Airport (TBPB)
Click to view FAA NOTAMS
Miami International Airport (KMIA)
Click to view FAA NOTAMS
Departure Time Arrival Time
N/A N/A
Aircraft Distance
B767-300BDSF 1402nm
Departure METAR Arrival METAR
TBPB 181500Z 10017KT 9999 VCSH BKN018 SCT036 27/20 Q1017 NOSIG KMIA 181453Z 36005KT 10SM FEW010 SCT130 BKN240 23/19 A3006 RMK AO2 SLP178 T02330194 53013
Suggested Route
BGI UA555 ILURI MEEGL Y421 HAGIT Y308 FOWEE FLIPR6


View recent IFR Routes data
Notes



Charts and Procedures

Charts for TBPB
No chart available
Charts for KMIA
No chart available

Windy.com Weather Map